sensor_id;sensor_type;location;lat;lon;timestamp;pressure;altitude;pressure_sealevel;temperature;humidity
37202;BME280;37799;52.390;6.136;2023-05-29T00:00:22;102420.91;;;8.81;100.00
37202;BME280;37799;52.390;6.136;2023-05-29T00:02:49;102412.28;;;8.78;100.00
37202;BME280;37799;52.390;6.136;2023-05-29T00:05:16;102424.31;;;8.74;100.00
37202;BME280;37799;52.390;6.136;2023-05-29T00:07:42;102411.34;;;8.67;100.00
37202;BME280;37799;52.390;6.136;2023-05-29T00:10:09;102419.06;;;8.64;100.00
37202;BME280;37799;52.390;6.136;2023-05-29T00:12:35;102419.91;;;8.60;100.00
37202;BME280;37799;52.390;6.136;2023-05-29T00:15:01;102432.78;;;8.58;100.00
37202;BME280;37799;52.390;6.136;2023-05-29T00:17:29;102425.00;;;8.53;100.00
37202;BME280;37799;52.390;6.136;2023-05-29T00:19:54;102422.31;;;8.40;100.00
37202;BME280;37799;52.390;6.136;2023-05-29T00:22:19;102420.59;;;8.39;100.00
37202;BME280;37799;52.390;6.136;2023-05-29T00:24:45;102415.28;;;8.26;100.00
37202;BME280;37799;52.390;6.136;2023-05-29T00:27:11;102425.63;;;8.31;100.00
37202;BME280;37799;52.390;6.136;2023-05-29T00:29:37;102426.47;;;8.25;100.00
37202;BME280;37799;52.390;6.136;2023-05-29T00:32:04;102425.59;;;8.23;100.00
37202;BME280;37799;52.390;6.136;2023-05-29T00:34:29;102429.00;;;8.21;100.00
37202;BME280;37799;52.390;6.136;2023-05-29T00:36:55;102431.50;;;8.10;100.00
37202;BME280;37799;52.390;6.136;2023-05-29T00:39:20;102430.63;;;8.08;100.00
37202;BME280;37799;52.390;6.136;2023-05-29T00:41:46;102427.13;;;8.05;100.00
37202;BME280;37799;52.390;6.136;2023-05-29T00:44:15;102427.97;;;8.04;100.00
37202;BME280;37799;52.390;6.136;2023-05-29T00:46:41;102429.66;;;8.00;100.00
37202;BME280;37799;52.390;6.136;2023-05-29T00:49:06;102432.22;;;7.97;100.00
37202;BME280;37799;52.390;6.136;2023-05-29T00:51:32;102427.00;;;7.94;100.00
37202;BME280;37799;52.390;6.136;2023-05-29T00:53:58;102434.78;;;7.95;100.00
37202;BME280;37799;52.390;6.136;2023-05-29T00:56:24;102428.69;;;7.92;100.00
37202;BME280;37799;52.390;6.136;2023-05-29T00:58:51;102433.81;;;7.86;100.00
37202;BME280;37799;52.390;6.136;2023-05-29T01:01:19;102431.28;;;7.90;100.00
37202;BME280;37799;52.390;6.136;2023-05-29T01:03:46;102432.13;;;7.91;100.00
37202;BME280;37799;52.390;6.136;2023-05-29T01:06:13;102430.38;;;7.85;100.00
37202;BME280;37799;52.390;6.136;2023-05-29T01:08:39;102429.50;;;7.83;100.00
37202;BME280;37799;52.390;6.136;2023-05-29T01:11:13;102431.13;;;7.78;100.00
37202;BME280;37799;52.390;6.136;2023-05-29T01:13:45;102439.75;;;7.80;100.00
37202;BME280;37799;52.390;6.136;2023-05-29T01:16:22;102439.69;;;7.73;100.00
37202;BME280;37799;52.390;6.136;2023-05-29T01:19:00;102433.66;;;7.71;100.00
37202;BME280;37799;52.390;6.136;2023-05-29T01:24:14;102446.47;;;7.67;100.00
37202;BME280;37799;52.390;6.136;2023-05-29T01:27:07;102454.22;;;7.67;100.00
37202;BME280;37799;52.390;6.136;2023-05-29T01:29:37;102435.34;;;7.68;100.00
37202;BME280;37799;52.390;6.136;2023-05-29T01:32:04;102445.59;;;7.65;100.00
37202;BME280;37799;52.390;6.136;2023-05-29T01:34:30;102448.09;;;7.58;100.00
37202;BME280;37799;52.390;6.136;2023-05-29T01:36:55;102456.72;;;7.60;100.00
37202;BME280;37799;52.390;6.136;2023-05-29T01:39:21;102461.88;;;7.60;100.00
37202;BME280;37799;52.390;6.136;2023-05-29T01:41:47;102462.66;;;7.54;100.00
37202;BME280;37799;52.390;6.136;2023-05-29T01:44:13;102466.91;;;7.51;100.00
37202;BME280;37799;52.390;6.136;2023-05-29T01:46:41;102470.34;;;7.50;100.00
37202;BME280;37799;52.390;6.136;2023-05-29T01:49:07;102481.47;;;7.47;100.00
37202;BME280;37799;52.390;6.136;2023-05-29T01:51:33;102475.50;;;7.50;100.00
37202;BME280;37799;52.390;6.136;2023-05-29T01:53:59;102481.50;;;7.49;100.00
37202;BME280;37799;52.390;6.136;2023-05-29T01:56:26;102482.28;;;7.43;100.00
37202;BME280;37799;52.390;6.136;2023-05-29T01:58:53;102485.66;;;7.40;100.00
37202;BME280;37799;52.390;6.136;2023-05-29T02:01:23;102489.19;;;7.44;100.00
37202;BME280;37799;52.390;6.136;2023-05-29T02:03:49;102480.56;;;7.44;100.00
37202;BME280;37799;52.390;6.136;2023-05-29T02:06:15;102483.16;;;7.44;100.00
37202;BME280;37799;52.390;6.136;2023-05-29T02:08:40;102477.03;;;7.37;100.00
37202;BME280;37799;52.390;6.136;2023-05-29T02:11:05;102482.09;;;7.29;100.00
37202;BME280;37799;52.390;6.136;2023-05-29T02:13:31;102485.50;;;7.28;100.00
37202;BME280;37799;52.390;6.136;2023-05-29T02:15:56;102481.97;;;7.20;100.00
37202;BME280;37799;52.390;6.136;2023-05-29T02:18:22;102473.38;;;7.21;100.00
37202;BME280;37799;52.390;6.136;2023-05-29T02:20:47;102474.25;;;7.22;100.00
37202;BME280;37799;52.390;6.136;2023-05-29T02:23:12;102478.53;;;7.21;100.00
37202;BME280;37799;52.390;6.136;2023-05-29T02:25:38;102475.06;;;7.16;100.00
37202;BME280;37799;52.390;6.136;2023-05-29T02:28:05;102474.91;;;7.07;100.00
37202;BME280;37799;52.390;6.136;2023-05-29T02:30:30;102483.41;;;7.03;100.00
37202;BME280;37799;52.390;6.136;2023-05-29T02:32:56;102480.78;;;6.98;100.00
37202;BME280;37799;52.390;6.136;2023-05-29T02:35:21;102480.75;;;6.95;100.00
37202;BME280;37799;52.390;6.136;2023-05-29T02:37:51;102472.13;;;6.93;100.00
37202;BME280;37799;52.390;6.136;2023-05-29T02:40:17;102482.41;;;6.92;100.00
37202;BME280;37799;52.390;6.136;2023-05-29T02:42:42;102475.56;;;6.94;100.00
37202;BME280;37799;52.390;6.136;2023-05-29T02:45:08;102474.75;;;6.96;100.00
37202;BME280;37799;52.390;6.136;2023-05-29T02:47:35;102479.03;;;6.96;100.00
37202;BME280;37799;52.390;6.136;2023-05-29T02:50:01;102482.38;;;6.90;100.00
37202;BME280;37799;52.390;6.136;2023-05-29T02:52:26;102478.13;;;6.92;100.00
37202;BME280;37799;52.390;6.136;2023-05-29T02:54:52;102485.75;;;6.86;100.00
37202;BME280;37799;52.390;6.136;2023-05-29T02:57:19;102487.41;;;6.83;100.00
37202;BME280;37799;52.390;6.136;2023-05-29T02:59:45;102484.78;;;6.78;100.00
37202;BME280;37799;52.390;6.136;2023-05-29T03:02:10;102494.13;;;6.74;100.00
37202;BME280;37799;52.390;6.136;2023-05-29T03:04:36;102488.06;;;6.71;100.00
37202;BME280;37799;52.390;6.136;2023-05-29T03:07:01;102479.41;;;6.64;100.00
37202;BME280;37799;52.390;6.136;2023-05-29T03:09:26;102484.50;;;6.63;100.00
37202;BME280;37799;52.390;6.136;2023-05-29T03:11:52;102484.47;;;6.61;100.00
37202;BME280;37799;52.390;6.136;2023-05-29T03:14:18;102477.63;;;6.62;100.00
37202;BME280;37799;52.390;6.136;2023-05-29T03:16:44;102481.13;;;6.65;100.00
37202;BME280;37799;52.390;6.136;2023-05-29T03:19:10;102480.19;;;6.62;100.00
37202;BME280;37799;52.390;6.136;2023-05-29T03:21:35;102474.94;;;6.56;100.00
37202;BME280;37799;52.390;6.136;2023-05-29T03:24:01;102478.38;;;6.55;100.00
37202;BME280;37799;52.390;6.136;2023-05-29T03:26:28;102471.41;;;6.50;100.00
37202;BME280;37799;52.390;6.136;2023-05-29T03:28:53;102471.50;;;6.54;100.00
37202;BME280;37799;52.390;6.136;2023-05-29T03:31:19;102463.75;;;6.52;100.00
37202;BME280;37799;52.390;6.136;2023-05-29T03:33:44;102481.06;;;6.62;100.00
37202;BME280;37799;52.390;6.136;2023-05-29T03:36:10;102469.97;;;6.65;100.00
37202;BME280;37799;52.390;6.136;2023-05-29T03:38:36;102468.19;;;6.64;100.00
37202;BME280;37799;52.390;6.136;2023-05-29T03:41:01;102463.09;;;6.65;100.00
37202;BME280;37799;52.390;6.136;2023-05-29T03:43:26;102467.44;;;6.68;100.00
37202;BME280;37799;52.390;6.136;2023-05-29T03:45:52;102463.16;;;6.70;100.00
37202;BME280;37799;52.390;6.136;2023-05-29T03:48:17;102467.50;;;6.72;100.00
37202;BME280;37799;52.390;6.136;2023-05-29T03:50:45;102468.28;;;6.67;100.00
37202;BME280;37799;52.390;6.136;2023-05-29T03:53:11;102468.31;;;6.70;100.00
37202;BME280;37799;52.390;6.136;2023-05-29T03:55:36;102474.28;;;6.67;100.00
37202;BME280;37799;52.390;6.136;2023-05-29T03:58:01;102483.75;;;6.68;100.00
37202;BME280;37799;52.390;6.136;2023-05-29T04:00:27;102485.53;;;6.74;100.00
37202;BME280;37799;52.390;6.136;2023-05-29T04:02:55;102487.22;;;6.70;100.00
37202;BME280;37799;52.390;6.136;2023-05-29T04:05:20;102485.41;;;6.65;100.00
37202;BME280;37799;52.390;6.136;2023-05-29T04:07:45;102487.19;;;6.69;100.00
37202;BME280;37799;52.390;6.136;2023-05-29T04:10:11;102488.22;;;6.78;100.00
37202;BME280;37799;52.390;6.136;2023-05-29T04:12:36;102487.44;;;6.84;100.00
37202;BME280;37799;52.390;6.136;2023-05-29T04:15:01;102496.03;;;6.86;100.00
37202;BME280;37799;52.390;6.136;2023-05-29T04:17:27;102501.22;;;6.89;100.00
37202;BME280;37799;52.390;6.136;2023-05-29T04:19:52;102506.50;;;6.95;100.00
37202;BME280;37799;52.390;6.136;2023-05-29T04:22:17;102509.91;;;6.94;100.00
37202;BME280;37799;52.390;6.136;2023-05-29T04:24:44;102517.69;;;6.97;100.00
37202;BME280;37799;52.390;6.136;2023-05-29T04:27:10;102528.91;;;7.02;100.00
37202;BME280;37799;52.390;6.136;2023-05-29T04:29:39;102531.59;;;7.08;100.00
37202;BME280;37799;52.390;6.136;2023-05-29T04:32:06;102532.53;;;7.14;100.00
37202;BME280;37799;52.390;6.136;2023-05-29T04:34:31;102530.94;;;7.22;100.00
37202;BME280;37799;52.390;6.136;2023-05-29T04:36:57;102525.94;;;7.31;100.00
37202;BME280;37799;52.390;6.136;2023-05-29T04:39:23;102525.09;;;7.33;100.00
37202;BME280;37799;52.390;6.136;2023-05-29T04:41:49;102526.00;;;7.37;100.00
37202;BME280;37799;52.390;6.136;2023-05-29T04:44:14;102533.03;;;7.47;100.00
37202;BME280;37799;52.390;6.136;2023-05-29T04:46:40;102537.34;;;7.50;100.00
37202;BME280;37799;52.390;6.136;2023-05-29T04:49:05;102540.97;;;7.62;100.00
37202;BME280;37799;52.390;6.136;2023-05-29T04:51:31;102541.97;;;7.72;100.00
37202;BME280;37799;52.390;6.136;2023-05-29T04:53:56;102543.72;;;7.75;100.00
37202;BME280;37799;52.390;6.136;2023-05-29T04:56:22;102542.97;;;7.83;100.00
37202;BME280;37799;52.390;6.136;2023-05-29T04:58:47;102540.50;;;7.94;100.00
37202;BME280;37799;52.390;6.136;2023-05-29T05:01:13;102538.00;;;7.98;100.00
37202;BME280;37799;52.390;6.136;2023-05-29T05:03:43;102533.81;;;8.08;100.00
37202;BME280;37799;52.390;6.136;2023-05-29T05:06:09;102544.22;;;8.17;100.00
37202;BME280;37799;52.390;6.136;2023-05-29T05:08:35;102537.44;;;8.25;100.00
37202;BME280;37799;52.390;6.136;2023-05-29T05:11:01;102533.22;;;8.34;100.00
37202;BME280;37799;52.390;6.136;2023-05-29T05:13:27;102543.66;;;8.43;100.00
37202;BME280;37799;52.390;6.136;2023-05-29T05:15:53;102545.47;;;8.48;100.00
37202;BME280;37799;52.390;6.136;2023-05-29T05:18:18;102546.47;;;8.64;100.00
37202;BME280;37799;52.390;6.136;2023-05-29T05:20:44;102558.66;;;8.80;100.00
37202;BME280;37799;52.390;6.136;2023-05-29T05:23:10;102547.56;;;8.92;100.00
37202;BME280;37799;52.390;6.136;2023-05-29T05:25:36;102553.78;;;9.15;100.00
37202;BME280;37799;52.390;6.136;2023-05-29T05:28:02;102560.94;;;9.53;100.00
37202;BME280;37799;52.390;6.136;2023-05-29T05:30:28;102556.06;;;10.16;100.00
37202;BME280;37799;52.390;6.136;2023-05-29T05:32:54;102563.94;;;10.80;100.00
37202;BME280;37799;52.390;6.136;2023-05-29T05:35:20;102570.84;;;11.46;100.00
37202;BME280;37799;52.390;6.136;2023-05-29T05:37:45;102573.25;;;12.15;100.00
37202;BME280;37799;52.390;6.136;2023-05-29T05:40:11;102570.25;;;12.78;100.00
37202;BME280;37799;52.390;6.136;2023-05-29T05:42:37;102576.69;;;13.38;100.00
37202;BME280;37799;52.390;6.136;2023-05-29T05:45:03;102578.13;;;13.65;100.00
37202;BME280;37799;52.390;6.136;2023-05-29T05:47:29;102577.59;;;14.11;100.00
37202;BME280;37799;52.390;6.136;2023-05-29T05:49:54;102571.84;;;14.52;100.00
37202;BME280;37799;52.390;6.136;2023-05-29T05:52:20;102580.25;;;14.71;100.00
37202;BME280;37799;52.390;6.136;2023-05-29T05:54:45;102578.16;;;14.93;100.00
37202;BME280;37799;52.390;6.136;2023-05-29T05:57:11;102581.28;;;15.15;100.00
37202;BME280;37799;52.390;6.136;2023-05-29T05:59:36;102579.72;;;15.54;100.00
37202;BME280;37799;52.390;6.136;2023-05-29T06:02:01;102581.81;;;15.81;100.00
37202;BME280;37799;52.390;6.136;2023-05-29T06:04:29;102574.19;;;15.71;100.00
37202;BME280;37799;52.390;6.136;2023-05-29T06:06:54;102580.16;;;15.77;100.00
37202;BME280;37799;52.390;6.136;2023-05-29T06:09:20;102575.84;;;16.18;100.00
37202;BME280;37799;52.390;6.136;2023-05-29T06:11:45;102581.16;;;16.12;100.00
37202;BME280;37799;52.390;6.136;2023-05-29T06:14:11;102578.69;;;16.46;100.00
37202;BME280;37799;52.390;6.136;2023-05-29T06:16:36;102579.34;;;16.56;100.00
37202;BME280;37799;52.390;6.136;2023-05-29T06:19:01;102584.91;;;16.79;100.00
37202;BME280;37799;52.390;6.136;2023-05-29T06:21:27;102589.22;;;16.82;100.00
37202;BME280;37799;52.390;6.136;2023-05-29T06:23:52;102593.00;;;16.70;100.00
37202;BME280;37799;52.390;6.136;2023-05-29T06:26:18;102587.69;;;16.73;100.00
37202;BME280;37799;52.390;6.136;2023-05-29T06:28:43;102586.81;;;17.08;100.00
37202;BME280;37799;52.390;6.136;2023-05-29T06:31:08;102587.59;;;16.76;100.00
37202;BME280;37799;52.390;6.136;2023-05-29T06:33:35;102594.16;;;16.94;100.00
37202;BME280;37799;52.390;6.136;2023-05-29T06:36:00;102592.31;;;16.97;100.00
37202;BME280;37799;52.390;6.136;2023-05-29T06:38:25;102587.56;;;17.13;100.00
37202;BME280;37799;52.390;6.136;2023-05-29T06:40:51;102594.06;;;17.31;96.78
37202;BME280;37799;52.390;6.136;2023-05-29T06:43:16;102596.63;;;17.00;99.16
37202;BME280;37799;52.390;6.136;2023-05-29T06:45:41;102588.88;;;16.58;100.00
37202;BME280;37799;52.390;6.136;2023-05-29T06:48:07;102587.59;;;16.76;100.00
37202;BME280;37799;52.390;6.136;2023-05-29T06:50:32;102593.56;;;16.83;98.21
37202;BME280;37799;52.390;6.136;2023-05-29T06:52:59;102588.19;;;17.23;100.00
37202;BME280;37799;52.390;6.136;2023-05-29T06:55:24;102595.69;;;17.67;97.45
37202;BME280;37799;52.390;6.136;2023-05-29T06:57:50;102605.78;;;17.16;93.51
37202;BME280;37799;52.390;6.136;2023-05-29T07:00:17;102616.84;;;17.27;95.71
37202;BME280;37799;52.390;6.136;2023-05-29T07:02:42;102616.00;;;17.27;96.87
37202;BME280;37799;52.390;6.136;2023-05-29T07:05:08;102615.06;;;16.95;99.60
37202;BME280;37799;52.390;6.136;2023-05-29T07:07:33;102605.38;;;17.33;100.00
37202;BME280;37799;52.390;6.136;2023-05-29T07:09:59;102621.34;;;17.89;97.52
37202;BME280;37799;52.390;6.136;2023-05-29T07:12:24;102618.63;;;17.92;93.78
37202;BME280;37799;52.390;6.136;2023-05-29T07:14:49;102620.91;;;18.04;93.14
37202;BME280;37799;52.390;6.136;2023-05-29T07:17:15;102627.00;;;18.05;88.21
37202;BME280;37799;52.390;6.136;2023-05-29T07:19:41;102623.47;;;18.06;89.67
37202;BME280;37799;52.390;6.136;2023-05-29T07:22:06;102619.34;;;18.56;87.68
37202;BME280;37799;52.390;6.136;2023-05-29T07:24:31;102627.06;;;18.61;85.65
37202;BME280;37799;52.390;6.136;2023-05-29T07:26:57;102624.25;;;18.09;84.20
37202;BME280;37799;52.390;6.136;2023-05-29T07:29:23;102623.22;;;18.44;85.91
37202;BME280;37799;52.390;6.136;2023-05-29T07:31:50;102617.94;;;18.74;82.95
37202;BME280;37799;52.390;6.136;2023-05-29T07:34:15;102621.88;;;18.89;81.93
37202;BME280;37799;52.390;6.136;2023-05-29T07:37:01;102618.28;;;18.91;80.93
37202;BME280;37799;52.390;6.136;2023-05-29T07:39:27;102626.88;;;18.68;79.38
37202;BME280;37799;52.390;6.136;2023-05-29T07:41:53;102616.78;;;18.82;85.62
37202;BME280;37799;52.390;6.136;2023-05-29T07:44:18;102625.38;;;18.88;83.55
37202;BME280;37799;52.390;6.136;2023-05-29T07:46:45;102625.19;;;18.94;80.61
37202;BME280;37799;52.390;6.136;2023-05-29T07:49:10;102629.75;;;19.15;81.99
37202;BME280;37799;52.390;6.136;2023-05-29T07:51:36;102620.91;;;19.18;80.88
37202;BME280;37799;52.390;6.136;2023-05-29T07:54:02;102627.50;;;19.29;80.12
37202;BME280;37799;52.390;6.136;2023-05-29T07:56:29;102628.13;;;19.36;77.08
37202;BME280;37799;52.390;6.136;2023-05-29T07:58:56;102626.75;;;18.99;76.26
37202;BME280;37799;52.390;6.136;2023-05-29T08:01:22;102618.13;;;18.96;82.02
37202;BME280;37799;52.390;6.136;2023-05-29T08:03:47;102619.19;;;18.90;78.01
37202;BME280;37799;52.390;6.136;2023-05-29T08:06:13;102630.22;;;19.00;77.21
37202;BME280;37799;52.390;6.136;2023-05-29T08:08:39;102630.03;;;19.32;76.67
37202;BME280;37799;52.390;6.136;2023-05-29T08:11:05;102621.88;;;18.87;77.20
37202;BME280;37799;52.390;6.136;2023-05-29T08:13:30;102626.78;;;18.98;78.73
37202;BME280;37799;52.390;6.136;2023-05-29T08:15:57;102627.69;;;18.70;74.67
37202;BME280;37799;52.390;6.136;2023-05-29T08:18:25;102632.03;;;18.42;75.78
37202;BME280;37799;52.390;6.136;2023-05-29T08:20:51;102626.31;;;18.57;75.95
37202;BME280;37799;52.390;6.136;2023-05-29T08:23:17;102616.00;;;18.80;78.60
37202;BME280;37799;52.390;6.136;2023-05-29T08:25:43;102627.91;;;19.17;78.28
37202;BME280;37799;52.390;6.136;2023-05-29T08:28:08;102631.41;;;19.69;72.99
37202;BME280;37799;52.390;6.136;2023-05-29T08:30:34;102632.59;;;20.09;69.42
37202;BME280;37799;52.390;6.136;2023-05-29T08:32:59;102643.41;;;19.76;69.58
37202;BME280;37799;52.390;6.136;2023-05-29T08:35:25;102639.09;;;19.49;69.98
37202;BME280;37799;52.390;6.136;2023-05-29T08:37:50;102626.44;;;19.85;74.25
37202;BME280;37799;52.390;6.136;2023-05-29T08:40:16;102631.47;;;20.38;69.23
37202;BME280;37799;52.390;6.136;2023-05-29T08:42:50;102637.59;;;20.83;66.97
37202;BME280;37799;52.390;6.136;2023-05-29T08:45:18;102636.22;;;20.95;67.04
37202;BME280;37799;52.390;6.136;2023-05-29T08:47:44;102633.47;;;20.31;67.23
37202;BME280;37799;52.390;6.136;2023-05-29T08:50:14;102641.47;;;20.04;64.52
37202;BME280;37799;52.390;6.136;2023-05-29T08:52:42;102638.69;;;19.86;67.33
37202;BME280;37799;52.390;6.136;2023-05-29T08:55:09;102635.38;;;19.81;68.46
37202;BME280;37799;52.390;6.136;2023-05-29T08:57:36;102626.28;;;20.36;65.23
37202;BME280;37799;52.390;6.136;2023-05-29T09:00:03;102630.75;;;20.34;62.18
37202;BME280;37799;52.390;6.136;2023-05-29T09:02:35;102631.59;;;20.11;64.93
37202;BME280;37799;52.390;6.136;2023-05-29T09:05:02;102625.44;;;20.12;63.20
37202;BME280;37799;52.390;6.136;2023-05-29T09:07:27;102626.09;;;20.41;67.25
37202;BME280;37799;52.390;6.136;2023-05-29T09:09:54;102634.06;;;20.83;62.61
37202;BME280;37799;52.390;6.136;2023-05-29T09:12:20;102630.34;;;21.10;59.50
37202;BME280;37799;52.390;6.136;2023-05-29T09:14:45;102641.16;;;21.25;62.29
37202;BME280;37799;52.390;6.136;2023-05-29T09:17:12;102639.03;;;21.73;55.94
37202;BME280;37799;52.390;6.136;2023-05-29T09:19:39;102643.13;;;21.81;55.55
37202;BME280;37799;52.390;6.136;2023-05-29T09:22:13;102636.16;;;21.59;55.88
37202;BME280;37799;52.390;6.136;2023-05-29T09:24:45;102633.13;;;21.68;55.17
37202;BME280;37799;52.390;6.136;2023-05-29T09:27:10;102632.13;;;21.71;55.01
37202;BME280;37799;52.390;6.136;2023-05-29T09:32:16;102641.06;;;21.28;51.66
37202;BME280;37799;52.390;6.136;2023-05-29T09:34:43;102646.44;;;21.25;54.08
37202;BME280;37799;52.390;6.136;2023-05-29T09:37:10;102639.13;;;20.89;54.92
37202;BME280;37799;52.390;6.136;2023-05-29T09:39:50;102636.53;;;20.66;50.11
37202;BME280;37799;52.390;6.136;2023-05-29T09:42:17;102637.72;;;20.35;54.61
37202;BME280;37799;52.390;6.136;2023-05-29T09:44:45;102628.72;;;20.64;52.41
37202;BME280;37799;52.390;6.136;2023-05-29T09:47:17;102640.03;;;20.88;51.40
37202;BME280;37799;52.390;6.136;2023-05-29T09:49:43;102642.97;;;21.44;48.49
37202;BME280;37799;52.390;6.136;2023-05-29T09:52:13;102640.47;;;21.62;49.35
37202;BME280;37799;52.390;6.136;2023-05-29T09:54:43;102634.88;;;21.49;49.18
37202;BME280;37799;52.390;6.136;2023-05-29T09:57:16;102638.31;;;20.87;47.92
37202;BME280;37799;52.390;6.136;2023-05-29T09:59:46;102631.09;;;20.48;51.18
37202;BME280;37799;52.390;6.136;2023-05-29T10:02:16;102626.94;;;20.65;55.05
37202;BME280;37799;52.390;6.136;2023-05-29T10:04:41;102624.88;;;20.93;52.46
37202;BME280;37799;52.390;6.136;2023-05-29T10:07:14;102628.59;;;20.89;51.96
37202;BME280;37799;52.390;6.136;2023-05-29T10:09:42;102628.72;;;20.86;50.66
37202;BME280;37799;52.390;6.136;2023-05-29T10:36:20;102620.88;;;21.47;51.34
37202;BME280;37799;52.390;6.136;2023-05-29T10:38:49;102619.16;;;21.46;50.15
37202;BME280;37799;52.390;6.136;2023-05-29T10:44:00;102605.03;;;22.25;48.29
37202;BME280;37799;52.390;6.136;2023-05-29T10:49:20;102606.13;;;21.63;44.84
37202;BME280;37799;52.390;6.136;2023-05-29T10:51:46;102600.50;;;22.10;46.67
37202;BME280;37799;52.390;6.136;2023-05-29T10:54:11;102609.94;;;21.56;43.36
37202;BME280;37799;52.390;6.136;2023-05-29T10:56:39;102609.78;;;21.18;42.24
37202;BME280;37799;52.390;6.136;2023-05-29T10:59:07;102606.88;;;21.26;44.39
37202;BME280;37799;52.390;6.136;2023-05-29T11:01:33;102605.53;;;21.57;45.83
37202;BME280;37799;52.390;6.136;2023-05-29T11:06:51;102602.97;;;22.13;42.30
37202;BME280;37799;52.390;6.136;2023-05-29T11:09:33;102609.47;;;22.06;43.90
37202;BME280;37799;52.390;6.136;2023-05-29T11:12:14;102610.91;;;22.13;43.50
37202;BME280;37799;52.390;6.136;2023-05-29T11:14:48;102610.47;;;22.22;46.22
37202;BME280;37799;52.390;6.136;2023-05-29T11:17:50;102614.31;;;22.34;40.09
37202;BME280;37799;52.390;6.136;2023-05-29T11:20:37;102624.81;;;22.35;41.93
37202;BME280;37799;52.390;6.136;2023-05-29T11:23:07;102611.72;;;22.70;41.88
37202;BME280;37799;52.390;6.136;2023-05-29T11:25:37;102612.84;;;22.83;40.65
37202;BME280;37799;52.390;6.136;2023-05-29T11:28:04;102611.41;;;22.76;42.62
37202;BME280;37799;52.390;6.136;2023-05-29T11:30:46;102615.13;;;23.25;39.63
37202;BME280;37799;52.390;6.136;2023-05-29T11:33:26;102625.09;;;23.53;39.84
37202;BME280;37799;52.390;6.136;2023-05-29T11:35:58;102619.22;;;23.66;39.47
37202;BME280;37799;52.390;6.136;2023-05-29T11:38:25;102607.50;;;23.02;39.40
37202;BME280;37799;52.390;6.136;2023-05-29T11:40:53;102616.81;;;23.61;42.60
37202;BME280;37799;52.390;6.136;2023-05-29T11:43:19;102608.06;;;23.76;40.03
37202;BME280;37799;52.390;6.136;2023-05-29T11:45:44;102619.78;;;23.88;40.19
37202;BME280;37799;52.390;6.136;2023-05-29T11:48:10;102614.69;;;23.50;37.08
37202;BME280;37799;52.390;6.136;2023-05-29T11:50:36;102620.50;;;23.07;35.52
37202;BME280;37799;52.390;6.136;2023-05-29T11:53:02;102613.16;;;23.12;36.55
37202;BME280;37799;52.390;6.136;2023-05-29T11:55:28;102616.34;;;23.36;39.01
37202;BME280;37799;52.390;6.136;2023-05-29T11:57:58;102615.81;;;23.64;36.89
37202;BME280;37799;52.390;6.136;2023-05-29T12:00:29;102613.91;;;23.66;38.89
37202;BME280;37799;52.390;6.136;2023-05-29T12:02:57;102610.06;;;23.38;38.54
37202;BME280;37799;52.390;6.136;2023-05-29T12:05:22;102609.28;;;23.02;36.31
37202;BME280;37799;52.390;6.136;2023-05-29T12:07:52;102611.06;;;23.01;39.02
37202;BME280;37799;52.390;6.136;2023-05-29T12:10:19;102607.56;;;22.83;39.50
37202;BME280;37799;52.390;6.136;2023-05-29T12:12:53;102610.06;;;23.21;40.94
37202;BME280;37799;52.390;6.136;2023-05-29T12:15:19;102606.31;;;23.60;36.71
37202;BME280;37799;52.390;6.136;2023-05-29T12:17:46;102599.53;;;23.71;37.75
37202;BME280;37799;52.390;6.136;2023-05-29T12:20:13;102596.06;;;24.02;41.09
37202;BME280;37799;52.390;6.136;2023-05-29T12:22:41;102600.03;;;24.42;36.15
37202;BME280;37799;52.390;6.136;2023-05-29T12:27:34;102592.09;;;23.45;36.30
37202;BME280;37799;52.390;6.136;2023-05-29T12:30:07;102604.22;;;23.14;39.72
37202;BME280;37799;52.390;6.136;2023-05-29T12:32:43;102596.53;;;23.44;35.92
37202;BME280;37799;52.390;6.136;2023-05-29T12:35:18;102596.69;;;22.89;35.61
37202;BME280;37799;52.390;6.136;2023-05-29T12:38:06;102591.81;;;23.67;33.98
37202;BME280;37799;52.390;6.136;2023-05-29T12:40:34;102594.09;;;23.90;36.13
37202;BME280;37799;52.390;6.136;2023-05-29T12:43:01;102593.34;;;24.20;37.56
37202;BME280;37799;52.390;6.136;2023-05-29T12:45:29;102597.97;;;24.63;36.93
37202;BME280;37799;52.390;6.136;2023-05-29T12:48:00;102593.00;;;24.57;36.19
37202;BME280;37799;52.390;6.136;2023-05-29T12:53:09;102603.34;;;24.15;38.57
37202;BME280;37799;52.390;6.136;2023-05-29T12:55:37;102597.44;;;23.43;39.04
37202;BME280;37799;52.390;6.136;2023-05-29T12:58:04;102593.34;;;23.03;40.53
37202;BME280;37799;52.390;6.136;2023-05-29T13:00:30;102592.81;;;22.78;38.29
37202;BME280;37799;52.390;6.136;2023-05-29T13:02:56;102578.84;;;22.94;39.48
37202;BME280;37799;52.390;6.136;2023-05-29T13:05:22;102582.22;;;23.14;39.17
37202;BME280;37799;52.390;6.136;2023-05-29T13:07:49;102589.41;;;22.94;37.00
37202;BME280;37799;52.390;6.136;2023-05-29T13:10:15;102593.56;;;22.81;39.06
37202;BME280;37799;52.390;6.136;2023-05-29T13:12:41;102589.69;;;23.23;38.37
37202;BME280;37799;52.390;6.136;2023-05-29T13:15:07;102593.72;;;23.47;36.88
37202;BME280;37799;52.390;6.136;2023-05-29T13:17:33;102594.22;;;23.54;36.56
37202;BME280;37799;52.390;6.136;2023-05-29T13:19:59;102590.97;;;23.66;35.18
37202;BME280;37799;52.390;6.136;2023-05-29T13:22:24;102603.34;;;23.48;36.84
37202;BME280;37799;52.390;6.136;2023-05-29T13:24:55;102596.44;;;23.29;35.47
37202;BME280;37799;52.390;6.136;2023-05-29T13:27:20;102592.34;;;23.23;37.09
37202;BME280;37799;52.390;6.136;2023-05-29T13:29:46;102592.50;;;23.03;34.49